This is the latest recevied weather packets stored in our database for station/object AC0YE. If no packets are shown the sender has not sent any weather packets the latest 10 day(s).
| Time | Temp. | Humidity | Pressure | Rain* | Wind** | Luminosity | Snow |
|---|---|---|---|---|---|---|---|
| 1777910717 | 23.33° C | 47% | 1001 hPa | 0 mm | - | - | - |
| 1777909517 | 22.22° C | 47% | 1001.3 hPa | 0 mm | - | - | - |
| 1777908917 | 22.22° C | 49% | 1001.4 hPa | 0 mm | - | - | - |
| 1777906517 | 21.11° C | 47% | 1001.8 hPa | 0 mm | - | - | - |
| 1777906217 | 21.11° C | 47% | 1001.9 hPa | 0 mm | - | - | - |
| 1777905617 | 20.56° C | 47% | 1002 hPa | 0 mm | - | - | - |
| 1777905337 | 20.56° C | 47% | 1002.1 hPa | 0 mm | - | - | - |
| 1777903817 | 19.44° C | 49% | 1002.5 hPa | 0 mm | - | - | - |
| 1777902617 | 18.89° C | 50% | 1002.4 hPa | 0 mm | - | - | - |
| 1777901117 | 17.78° C | 52% | 1002.6 hPa | 0 mm | - | - | - |
| 1777899617 | 15.56° C | 56% | 1003 hPa | 0 mm | - | - | - |
| 1777897517 | 13.33° C | 60% | 1003.2 hPa | 0 mm | - | - | - |
| 1777896917 | 12.22° C | 63% | 1003.2 hPa | 0 mm | - | - | - |
| 1777895116 | 9.44° C | 72% | 1003.1 hPa | 0 mm | - | - | - |
| 1777893016 | 11.11° C | 62% | 1003 hPa | 0 mm | - | - | - |
| 1777892116 | 11.11° C | 61% | 1003.4 hPa | 0 mm | - | - | - |
| 1777890616 | 11.11° C | 60% | 1003.6 hPa | 0 mm | - | - | - |
| 1777889716 | 11.11° C | 60% | 1003.5 hPa | 0 mm | - | - | - |
| 1777888816 | 10.56° C | 61% | 1003.7 hPa | 0 mm | - | - | - |
| 1777887616 | 11.11° C | 59% | 1004.1 hPa | 0 mm | - | - | - |
| 1777883416 | 11.11° C | 59% | 1004.5 hPa | 0 mm | - | - | - |
| 1777882816 | 11.67° C | 59% | 1004.9 hPa | 0 mm | - | - | - |
| 1777881016 | 10.56° C | 63% | 1005.1 hPa | 0 mm | - | - | - |
| 1777874136 | 11.11° C | 60% | 1005.9 hPa | 0 mm | - | - | - |
| 1777873836 | 11.11° C | 60% | 1006.1 hPa | 0 mm | - | - | - |
* Rain latest hour (hover to see other rain measurements)
** Current wind speed in m/s (hover to see current wind gust speed)